Neuburg — 5BQJ2 — position and weather

sailwx.info

Track history (hours):
 
Tides and Currents Weather Stations Pressure Air Temp Water Temp Dewpoint Dewpoint Depression Visibility Wind Speed Wind Dir Waves Ship Positions

Neuburg

Last reported at 2018-Jan-20 06:09 UTC. Time now 2018-Jan-20 21:18 UTC.
Position N 40°57' E 001°57'.

Length 142 m; draft 6.8 m.

Type: Ship (hazmat cat A). MMSI: 212740000.

Date/timePositionNaut miles runAvg speedWind from/ knotsBaromVisibWave heightAir tempDewpointWater temp
2018-Jan-20 06:09N 40°57' E 001°57'316.8
2018-Jan-20 05:59N 40°60' E 001°59'816.8
2018-Jan-20 05:31N 41°07' E 002°04'917.1
2018-Jan-20 05:00N 41°14' E 002°09'611.7
2018-Jan-20 04:30N 41°20' E 002°10'1 2.2
2018-Jan-20 03:59N 41°21' E 002°10'0 0.0
2018-Jan-20 03:29N 41°21' E 002°10'0 0.0
2018-Jan-20 02:59N 41°21' E 002°10'0 0.0
2018-Jan-20 02:29N 41°21' E 002°10'0 0.0
2018-Jan-20 01:59N 41°21' E 002°10'0 0.0
2018-Jan-20 01:26N 41°21' E 002°10'0 0.0
2018-Jan-20 00:53N 41°21' E 002°10'0 0.0
2018-Jan-20 00:29N 41°21' E 002°10'0 0.0
2018-Jan-19 23:59N 41°21' E 002°10'0 0.0
2018-Jan-19 23:29N 41°21' E 002°10'0 0.0
2018-Jan-19 22:59N 41°21' E 002°10'0 0.0
2018-Jan-19 22:29N 41°21' E 002°10'0 0.0
2018-Jan-19 21:59N 41°21' E 002°10'0 0.0
2018-Jan-19 21:29N 41°21' E 002°10'0 0.0
2018-Jan-19 20:59N 41°21' E 002°10'0 0.0
2018-Jan-19 20:29N 41°21' E 002°10'0 0.0
2018-Jan-19 20:01N 41°21' E 002°10'2 4.1
2018-Jan-19 19:31N 41°19' E 002°10'3 5.7
2018-Jan-19 19:01N 41°17' E 002°13'815.0
2018-Jan-19 18:30N 41°21' E 002°21'23516.2
2018-Jan-19 03:59N 43°16' E 006°59'715.9
2018-Jan-19 03:31N 43°21' E 007°06'815.6
2018-Jan-19 03:00N 43°26' E 007°14'816.6
2018-Jan-19 02:30N 43°32' E 007°23'917.6
2018-Jan-19 02:00N 43°37' E 007°32'4216.2
2018-Jan-18 23:23N 43°59' E 008°22'616.3
2018-Jan-18 23:00N 44°03' E 008°29'816.6
2018-Jan-18 22:30N 44°08' E 008°38'816.7
2018-Jan-18 22:00N 44°14' E 008°47'816.1
2018-Jan-18 21:31N 44°19' E 008°55'5 9.9
2018-Jan-18 21:00N 44°24' E 008°55'2 2.8
2018-Jan-18 20:28N 44°24' E 008°53'0 0.0
2018-Jan-18 19:58N 44°24' E 008°53'0 0.0
2018-Jan-18 19:28N 44°24' E 008°53'0 0.0
2018-Jan-18 18:58N 44°24' E 008°53'0 0.0
2018-Jan-18 18:28N 44°24' E 008°53'0 0.0
2018-Jan-18 17:58N 44°24' E 008°53'0 0.0
2018-Jan-18 17:28N 44°24' E 008°53'0 0.0
2018-Jan-18 16:58N 44°24' E 008°53'0 0.0
2018-Jan-18 16:28N 44°24' E 008°53'0 0.0
2018-Jan-18 15:58N 44°24' E 008°53'0 0.0
2018-Jan-18 15:28N 44°24' E 008°53'0 0.0
2018-Jan-18 14:58N 44°24' E 008°53'0 0.0
2018-Jan-18 14:28N 44°24' E 008°53'0 0.0
2018-Jan-18 13:58N 44°24' E 008°53'0 0.0
2018-Jan-18 13:28N 44°24' E 008°53'0 0.0
2018-Jan-18 12:58N 44°24' E 008°53'0 0.0
2018-Jan-18 12:28N 44°24' E 008°53'0 0.0
2018-Jan-18 11:58N 44°24' E 008°53'0 0.0
2018-Jan-18 11:28N 44°24' E 008°53'0 0.0
2018-Jan-18 10:58N 44°24' E 008°53'0 0.0
2018-Jan-18 10:28N 44°24' E 008°53'0 0.0
2018-Jan-18 09:58N 44°24' E 008°53'0 0.0
2018-Jan-18 09:28N 44°24' E 008°53'0 0.0
2018-Jan-18 09:01N 44°24' E 008°53'0 0.0
2018-Jan-18 08:31N 44°24' E 008°53'0 0.0
2018-Jan-18 08:00N 44°24' E 008°53'0 0.0
2018-Jan-18 07:23N 44°24' E 008°53'1 2.1
2018-Jan-18 07:00N 44°24' E 008°54'4 7.8
2018-Jan-18 06:30N 44°22' E 008°58'713.9
2018-Jan-18 06:00N 44°16' E 008°53'816.7
2018-Jan-18 05:30N 44°11' E 008°44'816.9
2018-Jan-18 05:00N 44°05' E 008°35'816.8
2018-Jan-18 04:30N 43°59' E 008°26'4516.1
2018-Jan-18 01:44N 43°30' E 007°39'416.4
2018-Jan-18 01:30N 43°28' E 007°36'916.7
2018-Jan-18 01:00N 43°22' E 007°27'1616.5
2018-Jan-18 00:00N 43°10' E 007°11'116.1
2018-Jan-17 23:57N 43°10' E 007°11'  
2018-Jan-12 14:57N 28°29' W 016°13'0 0.0
2018-Jan-12 14:30N 28°29' W 016°13'0 0.0
2018-Jan-12 14:00N 28°29' W 016°13'0 0.0
2018-Jan-12 13:27N 28°29' W 016°13'0 0.0
2018-Jan-12 13:00N 28°29' W 016°13'0 0.0
2018-Jan-12 12:30N 28°29' W 016°13'0 0.0
2018-Jan-12 12:00N 28°29' W 016°13'0 0.0
2018-Jan-12 11:30N 28°29' W 016°13'0 0.0
2018-Jan-12 11:00N 28°29' W 016°13'0 0.0
2018-Jan-12 10:30N 28°29' W 016°13'0 0.0
2018-Jan-12 10:00N 28°29' W 016°13'0 0.0
2018-Jan-12 09:27N 28°29' W 016°13'0 0.0
2018-Jan-12 09:00N 28°29' W 016°13'0 0.0
2018-Jan-12 08:30N 28°29' W 016°13'0 0.0
2018-Jan-12 08:00N 28°29' W 016°13'0 0.0
2018-Jan-12 07:28N 28°29' W 016°13'1 1.7
2018-Jan-12 07:00N 28°29' W 016°13'1 1.4
2018-Jan-12 06:30N 28°28' W 016°13'2 3.9
2018-Jan-12 06:00N 28°28' W 016°11'612.9
2018-Jan-12 05:30N 28°26' W 016°04'816.8
2018-Jan-12 05:00N 28°23' W 015°55'816.6
2018-Jan-12 04:30N 28°20' W 015°46'816.5
2018-Jan-12 04:00N 28°17' W 015°37'816.3
2018-Jan-12 03:30N 28°14' W 015°28'713.8
2018-Jan-12 03:00N 28°09' W 015°23'2 3.2
2018-Jan-12 02:31N 28°09' W 015°25'0 0.3
2018-Jan-12 02:00N 28°09' W 015°25'0 0.0
2018-Jan-12 01:21N 28°09' W 015°25'0 0.0
2018-Jan-12 00:51N 28°09' W 015°25'0 0.0
2018-Jan-12 00:21N 28°09' W 015°25'0 0.0
2018-Jan-11 23:51N 28°09' W 015°25'0 0.0
2018-Jan-11 23:24N 28°09' W 015°25'0 0.0
2018-Jan-11 22:54N 28°09' W 015°25'0 0.0
2018-Jan-11 22:24N 28°09' W 015°25'0 0.0
2018-Jan-11 21:54N 28°09' W 015°25'0 0.0
2018-Jan-11 21:24N 28°09' W 015°25'0 0.0
2018-Jan-11 20:54N 28°09' W 015°25'0 0.0
2018-Jan-11 20:30N 28°09' W 015°25'2 4.5
2018-Jan-11 20:00N 28°07' W 015°23'815.5
2018-Jan-11 19:30N 28°11' W 015°16'917.2
2018-Jan-11 19:00N 28°16' W 015°08'917.2
2018-Jan-11 18:30N 28°22' W 015°01'917.4
2018-Jan-11 17:59N 28°28' W 014°53'817.4
2018-Jan-11 17:30N 28°33' W 014°45'5517.1
2018-Jan-11 14:18N 28°50' W 013°46'717.8
2018-Jan-11 13:54N 28°54' W 013°39'717.2
2018-Jan-11 13:30N 28°57' W 013°32'1 0.9
2018-Jan-11 12:19N 28°58' W 013°32'0 0.0
2018-Jan-11 10:19N 28°58' W 013°32'0 0.0
2018-Jan-11 07:54N 28°58' W 013°32'1 2.4
2018-Jan-11 07:27N 28°57' W 013°32'713.9
2018-Jan-11 06:57N 28°53' W 013°39'5716.2
2018-Jan-11 03:26N 28°30' W 014°38'716.3
2018-Jan-11 03:00N 28°27' W 014°45'816.2
2018-Jan-11 02:30N 28°23' W 014°53'816.3
2018-Jan-11 02:00N 28°19' W 015°01'816.7
2018-Jan-11 01:30N 28°15' W 015°09'816.9
2018-Jan-11 01:00N 28°10' W 015°18'713.4
2018-Jan-11 00:30N 28°08' W 015°25'1 2.5
2018-Jan-10 23:58N 28°09' W 015°25'0 0.0
2018-Jan-10 23:28N 28°09' W 015°25'0 0.0
2018-Jan-10 22:58N 28°09' W 015°25'0 0.0
2018-Jan-10 22:28N 28°09' W 015°25'0 0.0
2018-Jan-10 21:58N 28°09' W 015°25'0 0.0
2018-Jan-10 21:19N 28°09' W 015°25'0 0.0
2018-Jan-10 20:49N 28°09' W 015°25'0 0.0
2018-Jan-10 20:19N 28°09' W 015°25'0 0.0
2018-Jan-10 19:49N 28°09' W 015°25'0 0.0
2018-Jan-10 19:19N 28°09' W 015°25'0 0.0
2018-Jan-10 18:52N 28°09' W 015°25'0 0.0
2018-Jan-10 18:22N 28°09' W 015°25'0 0.0
2018-Jan-10 17:52N 28°09' W 015°25'0 0.0
2018-Jan-10 17:22N 28°09' W 015°25'0 0.0
2018-Jan-10 17:00N 28°09' W 015°25'2 4.1
2018-Jan-10 16:31N 28°07' W 015°24'612.3
2018-Jan-10 16:00N 28°13' W 015°26'816.5
2018-Jan-10 15:30N 28°15' W 015°35'816.5
2018-Jan-10 15:00N 28°18' W 015°44'816.5
2018-Jan-10 14:30N 28°20' W 015°53'816.4
2018-Jan-10 14:00N 28°23' W 016°01'816.7
2018-Jan-10 13:30N 28°27' W 016°10'4 7.3
2018-Jan-10 13:00N 28°29' W 016°13'0 0.0
2018-Jan-10 12:30N 28°29' W 016°13'0 0.0
2018-Jan-10 12:00N 28°29' W 016°13'0 0.0
2018-Jan-10 11:30N 28°29' W 016°13'0 0.0
2018-Jan-10 11:00N 28°29' W 016°13'0 0.0
2018-Jan-10 10:30N 28°29' W 016°13'0 0.0
2018-Jan-10 10:00N 28°29' W 016°13'0 0.0
2018-Jan-10 09:30N 28°29' W 016°13'0 0.0
2018-Jan-10 09:00N 28°29' W 016°13'0 0.0
2018-Jan-10 08:30N 28°29' W 016°13'0 0.0
2018-Jan-10 06:38N 28°29' W 016°13'  
Track history (hours):
 
Tides and Currents Weather Stations Pressure Air Temp Water Temp Dewpoint Dewpoint Depression Visibility Wind Speed Wind Dir Waves Ship Positions

Neuburg

Last reported at 2018-Jan-20 06:09 UTC. Time now 2018-Jan-20 21:18 UTC.
Position N 40°57' E 001°57'.

Length 142 m; draft 6.8 m.

Type: Ship (hazmat cat A). MMSI: 212740000.

Date/timePositionNaut miles runAvg speedWind from/ knotsBaromVisibWave heightAir tempDewpointWater temp
2018-Jan-20 06:09N 40°57' E 001°57'316.8
2018-Jan-20 05:59N 40°60' E 001°59'816.8
2018-Jan-20 05:31N 41°07' E 002°04'917.1
2018-Jan-20 05:00N 41°14' E 002°09'611.7
2018-Jan-20 04:30N 41°20' E 002°10'1 2.2
2018-Jan-20 03:59N 41°21' E 002°10'0 0.0
2018-Jan-20 03:29N 41°21' E 002°10'0 0.0
2018-Jan-20 02:59N 41°21' E 002°10'0 0.0
2018-Jan-20 02:29N 41°21' E 002°10'0 0.0
2018-Jan-20 01:59N 41°21' E 002°10'0 0.0
2018-Jan-20 01:26N 41°21' E 002°10'0 0.0
2018-Jan-20 00:53N 41°21' E 002°10'0 0.0
2018-Jan-20 00:29N 41°21' E 002°10'0 0.0
2018-Jan-19 23:59N 41°21' E 002°10'0 0.0
2018-Jan-19 23:29N 41°21' E 002°10'0 0.0
2018-Jan-19 22:59N 41°21' E 002°10'0 0.0
2018-Jan-19 22:29N 41°21' E 002°10'0 0.0
2018-Jan-19 21:59N 41°21' E 002°10'0 0.0
2018-Jan-19 21:29N 41°21' E 002°10'0 0.0
2018-Jan-19 20:59N 41°21' E 002°10'0 0.0
2018-Jan-19 20:29N 41°21' E 002°10'0 0.0
2018-Jan-19 20:01N 41°21' E 002°10'2 4.1
2018-Jan-19 19:31N 41°19' E 002°10'3 5.7
2018-Jan-19 19:01N 41°17' E 002°13'815.0
2018-Jan-19 18:30N 41°21' E 002°21'23516.2
2018-Jan-19 03:59N 43°16' E 006°59'715.9
2018-Jan-19 03:31N 43°21' E 007°06'815.6
2018-Jan-19 03:00N 43°26' E 007°14'816.6
2018-Jan-19 02:30N 43°32' E 007°23'917.6
2018-Jan-19 02:00N 43°37' E 007°32'4216.2
2018-Jan-18 23:23N 43°59' E 008°22'616.3
2018-Jan-18 23:00N 44°03' E 008°29'816.6
2018-Jan-18 22:30N 44°08' E 008°38'816.7
2018-Jan-18 22:00N 44°14' E 008°47'816.1
2018-Jan-18 21:31N 44°19' E 008°55'5 9.9
2018-Jan-18 21:00N 44°24' E 008°55'2 2.8
2018-Jan-18 20:28N 44°24' E 008°53'0 0.0
2018-Jan-18 19:58N 44°24' E 008°53'0 0.0
2018-Jan-18 19:28N 44°24' E 008°53'0 0.0
2018-Jan-18 18:58N 44°24' E 008°53'0 0.0
2018-Jan-18 18:28N 44°24' E 008°53'0 0.0
2018-Jan-18 17:58N 44°24' E 008°53'0 0.0
2018-Jan-18 17:28N 44°24' E 008°53'0 0.0
2018-Jan-18 16:58N 44°24' E 008°53'0 0.0
2018-Jan-18 16:28N 44°24' E 008°53'0 0.0
2018-Jan-18 15:58N 44°24' E 008°53'0 0.0
2018-Jan-18 15:28N 44°24' E 008°53'0 0.0
2018-Jan-18 14:58N 44°24' E 008°53'0 0.0
2018-Jan-18 14:28N 44°24' E 008°53'0 0.0
2018-Jan-18 13:58N 44°24' E 008°53'0 0.0
2018-Jan-18 13:28N 44°24' E 008°53'0 0.0
2018-Jan-18 12:58N 44°24' E 008°53'0 0.0
2018-Jan-18 12:28N 44°24' E 008°53'0 0.0
2018-Jan-18 11:58N 44°24' E 008°53'0 0.0
2018-Jan-18 11:28N 44°24' E 008°53'0 0.0
2018-Jan-18 10:58N 44°24' E 008°53'0 0.0
2018-Jan-18 10:28N 44°24' E 008°53'0 0.0
2018-Jan-18 09:58N 44°24' E 008°53'0 0.0
2018-Jan-18 09:28N 44°24' E 008°53'0 0.0
2018-Jan-18 09:01N 44°24' E 008°53'0 0.0
2018-Jan-18 08:31N 44°24' E 008°53'0 0.0
2018-Jan-18 08:00N 44°24' E 008°53'0 0.0
2018-Jan-18 07:23N 44°24' E 008°53'1 2.1
2018-Jan-18 07:00N 44°24' E 008°54'4 7.8
2018-Jan-18 06:30N 44°22' E 008°58'713.9
2018-Jan-18 06:00N 44°16' E 008°53'816.7
2018-Jan-18 05:30N 44°11' E 008°44'816.9
2018-Jan-18 05:00N 44°05' E 008°35'816.8
2018-Jan-18 04:30N 43°59' E 008°26'4516.1
2018-Jan-18 01:44N 43°30' E 007°39'416.4
2018-Jan-18 01:30N 43°28' E 007°36'916.7
2018-Jan-18 01:00N 43°22' E 007°27'1616.5
2018-Jan-18 00:00N 43°10' E 007°11'116.1
2018-Jan-17 23:57N 43°10' E 007°11'  
2018-Jan-12 14:57N 28°29' W 016°13'0 0.0
2018-Jan-12 14:30N 28°29' W 016°13'0 0.0
2018-Jan-12 14:00N 28°29' W 016°13'0 0.0
2018-Jan-12 13:27N 28°29' W 016°13'0 0.0
2018-Jan-12 13:00N 28°29' W 016°13'0 0.0
2018-Jan-12 12:30N 28°29' W 016°13'0 0.0
2018-Jan-12 12:00N 28°29' W 016°13'0 0.0
2018-Jan-12 11:30N 28°29' W 016°13'0 0.0
2018-Jan-12 11:00N 28°29' W 016°13'0 0.0
2018-Jan-12 10:30N 28°29' W 016°13'0 0.0
2018-Jan-12 10:00N 28°29' W 016°13'0 0.0
2018-Jan-12 09:27N 28°29' W 016°13'0 0.0
2018-Jan-12 09:00N 28°29' W 016°13'0 0.0
2018-Jan-12 08:30N 28°29' W 016°13'0 0.0
2018-Jan-12 08:00N 28°29' W 016°13'0 0.0
2018-Jan-12 07:28N 28°29' W 016°13'1 1.7
2018-Jan-12 07:00N 28°29' W 016°13'1 1.4
2018-Jan-12 06:30N 28°28' W 016°13'2 3.9
2018-Jan-12 06:00N 28°28' W 016°11'612.9
2018-Jan-12 05:30N 28°26' W 016°04'816.8
2018-Jan-12 05:00N 28°23' W 015°55'816.6
2018-Jan-12 04:30N 28°20' W 015°46'816.5
2018-Jan-12 04:00N 28°17' W 015°37'816.3
2018-Jan-12 03:30N 28°14' W 015°28'713.8
2018-Jan-12 03:00N 28°09' W 015°23'2 3.2
2018-Jan-12 02:31N 28°09' W 015°25'0 0.3
2018-Jan-12 02:00N 28°09' W 015°25'0 0.0
2018-Jan-12 01:21N 28°09' W 015°25'0 0.0
2018-Jan-12 00:51N 28°09' W 015°25'0 0.0
2018-Jan-12 00:21N 28°09' W 015°25'0 0.0
2018-Jan-11 23:51N 28°09' W 015°25'0 0.0
2018-Jan-11 23:24N 28°09' W 015°25'0 0.0
2018-Jan-11 22:54N 28°09' W 015°25'0 0.0
2018-Jan-11 22:24N 28°09' W 015°25'0 0.0
2018-Jan-11 21:54N 28°09' W 015°25'0 0.0
2018-Jan-11 21:24N 28°09' W 015°25'0 0.0
2018-Jan-11 20:54N 28°09' W 015°25'0 0.0
2018-Jan-11 20:30N 28°09' W 015°25'2 4.5
2018-Jan-11 20:00N 28°07' W 015°23'815.5
2018-Jan-11 19:30N 28°11' W 015°16'917.2
2018-Jan-11 19:00N 28°16' W 015°08'917.2
2018-Jan-11 18:30N 28°22' W 015°01'917.4
2018-Jan-11 17:59N 28°28' W 014°53'817.4
2018-Jan-11 17:30N 28°33' W 014°45'5517.1
2018-Jan-11 14:18N 28°50' W 013°46'717.8
2018-Jan-11 13:54N 28°54' W 013°39'717.2
2018-Jan-11 13:30N 28°57' W 013°32'1 0.9
2018-Jan-11 12:19N 28°58' W 013°32'0 0.0
2018-Jan-11 10:19N 28°58' W 013°32'0 0.0
2018-Jan-11 07:54N 28°58' W 013°32'1 2.4
2018-Jan-11 07:27N 28°57' W 013°32'713.9
2018-Jan-11 06:57N 28°53' W 013°39'5716.2
2018-Jan-11 03:26N 28°30' W 014°38'716.3
2018-Jan-11 03:00N 28°27' W 014°45'816.2
2018-Jan-11 02:30N 28°23' W 014°53'816.3
2018-Jan-11 02:00N 28°19' W 015°01'816.7
2018-Jan-11 01:30N 28°15' W 015°09'816.9
2018-Jan-11 01:00N 28°10' W 015°18'713.4
2018-Jan-11 00:30N 28°08' W 015°25'1 2.5
2018-Jan-10 23:58N 28°09' W 015°25'0 0.0
2018-Jan-10 23:28N 28°09' W 015°25'0 0.0
2018-Jan-10 22:58N 28°09' W 015°25'0 0.0
2018-Jan-10 22:28N 28°09' W 015°25'0 0.0
2018-Jan-10 21:58N 28°09' W 015°25'0 0.0
2018-Jan-10 21:19N 28°09' W 015°25'0 0.0
2018-Jan-10 20:49N 28°09' W 015°25'0 0.0
2018-Jan-10 20:19N 28°09' W 015°25'0 0.0
2018-Jan-10 19:49N 28°09' W 015°25'0 0.0
2018-Jan-10 19:19N 28°09' W 015°25'0 0.0
2018-Jan-10 18:52N 28°09' W 015°25'0 0.0
2018-Jan-10 18:22N 28°09' W 015°25'0 0.0
2018-Jan-10 17:52N 28°09' W 015°25'0 0.0
2018-Jan-10 17:22N 28°09' W 015°25'0 0.0
2018-Jan-10 17:00N 28°09' W 015°25'2 4.1
2018-Jan-10 16:31N 28°07' W 015°24'612.3
2018-Jan-10 16:00N 28°13' W 015°26'816.5
2018-Jan-10 15:30N 28°15' W 015°35'816.5
2018-Jan-10 15:00N 28°18' W 015°44'816.5
2018-Jan-10 14:30N 28°20' W 015°53'816.4
2018-Jan-10 14:00N 28°23' W 016°01'816.7
2018-Jan-10 13:30N 28°27' W 016°10'4 7.3
2018-Jan-10 13:00N 28°29' W 016°13'0 0.0
2018-Jan-10 12:30N 28°29' W 016°13'0 0.0
2018-Jan-10 12:00N 28°29' W 016°13'0 0.0
2018-Jan-10 11:30N 28°29' W 016°13'0 0.0
2018-Jan-10 11:00N 28°29' W 016°13'0 0.0
2018-Jan-10 10:30N 28°29' W 016°13'0 0.0
2018-Jan-10 10:00N 28°29' W 016°13'0 0.0
2018-Jan-10 09:30N 28°29' W 016°13'0 0.0
2018-Jan-10 09:00N 28°29' W 016°13'0 0.0
2018-Jan-10 08:30N 28°29' W 016°13'0 0.0
2018-Jan-10 06:38N 28°29' W 016°13'  

Dump ship's entire track history